sensor_id;sensor_type;location;lat;lon;timestamp;P1;durP1;ratioP1;P2;durP2;ratioP2
10465;SDS011;5280;42.600;23.556;2023-04-03T00:00:22;1.67;;;1.57;;
10465;SDS011;5280;42.600;23.556;2023-04-03T00:02:48;4.67;;;2.30;;
10465;SDS011;5280;42.600;23.556;2023-04-03T00:05:15;3.73;;;2.03;;
10465;SDS011;5280;42.600;23.556;2023-04-03T00:07:42;3.27;;;2.33;;
10465;SDS011;5280;42.600;23.556;2023-04-03T00:10:09;2.30;;;1.90;;
10465;SDS011;5280;42.600;23.556;2023-04-03T00:12:36;3.20;;;1.97;;
10465;SDS011;5280;42.600;23.556;2023-04-03T00:15:03;1.93;;;1.80;;
10465;SDS011;5280;42.600;23.556;2023-04-03T00:17:32;2.63;;;1.63;;
10465;SDS011;5280;42.600;23.556;2023-04-03T00:19:59;1.93;;;1.73;;
10465;SDS011;5280;42.600;23.556;2023-04-03T00:22:26;1.90;;;1.50;;
10465;SDS011;5280;42.600;23.556;2023-04-03T00:24:53;1.83;;;1.43;;
10465;SDS011;5280;42.600;23.556;2023-04-03T00:27:20;2.27;;;1.40;;
10465;SDS011;5280;42.600;23.556;2023-04-03T00:29:47;1.00;;;1.00;;
10465;SDS011;5280;42.600;23.556;2023-04-03T00:32:14;1.50;;;1.40;;
10465;SDS011;5280;42.600;23.556;2023-04-03T00:34:42;1.60;;;1.50;;
10465;SDS011;5280;42.600;23.556;2023-04-03T00:37:09;1.87;;;1.40;;
10465;SDS011;5280;42.600;23.556;2023-04-03T00:39:36;1.37;;;1.17;;
10465;SDS011;5280;42.600;23.556;2023-04-03T00:42:04;1.30;;;1.00;;
10465;SDS011;5280;42.600;23.556;2023-04-03T00:47:35;1.70;;;1.17;;
10465;SDS011;5280;42.600;23.556;2023-04-03T00:50:03;1.10;;;1.10;;
10465;SDS011;5280;42.600;23.556;2023-04-03T00:52:31;1.47;;;1.37;;
10465;SDS011;5280;42.600;23.556;2023-04-03T00:54:59;2.53;;;1.17;;
10465;SDS011;5280;42.600;23.556;2023-04-03T00:57:30;1.57;;;1.20;;
10465;SDS011;5280;42.600;23.556;2023-04-03T00:59:59;1.47;;;1.10;;
10465;SDS011;5280;42.600;23.556;2023-04-03T01:02:29;1.43;;;0.90;;
10465;SDS011;5280;42.600;23.556;2023-04-03T01:04:56;0.70;;;0.70;;
10465;SDS011;5280;42.600;23.556;2023-04-03T01:07:26;1.20;;;1.17;;
10465;SDS011;5280;42.600;23.556;2023-04-03T01:09:56;1.43;;;1.10;;
10465;SDS011;5280;42.600;23.556;2023-04-03T01:12:25;1.03;;;0.93;;
10465;SDS011;5280;42.600;23.556;2023-04-03T01:14:53;2.30;;;0.93;;
10465;SDS011;5280;42.600;23.556;2023-04-03T01:17:28;1.30;;;0.90;;
10465;SDS011;5280;42.600;23.556;2023-04-03T01:20:02;0.90;;;0.90;;
10465;SDS011;5280;42.600;23.556;2023-04-03T01:22:59;1.03;;;1.00;;
10465;SDS011;5280;42.600;23.556;2023-04-03T01:25:40;1.70;;;0.90;;
10465;SDS011;5280;42.600;23.556;2023-04-03T01:28:11;1.00;;;1.00;;
10465;SDS011;5280;42.600;23.556;2023-04-03T01:30:41;0.97;;;0.97;;
10465;SDS011;5280;42.600;23.556;2023-04-03T01:33:15;0.90;;;0.90;;
10465;SDS011;5280;42.600;23.556;2023-04-03T01:35:42;1.40;;;1.30;;
10465;SDS011;5280;42.600;23.556;2023-04-03T01:38:09;2.07;;;1.13;;
10465;SDS011;5280;42.600;23.556;2023-04-03T01:40:36;2.40;;;1.80;;
10465;SDS011;5280;42.600;23.556;2023-04-03T01:43:04;1.93;;;1.40;;
10465;SDS011;5280;42.600;23.556;2023-04-03T01:45:31;1.13;;;1.10;;
10465;SDS011;5280;42.600;23.556;2023-04-03T01:47:58;0.70;;;0.70;;
10465;SDS011;5280;42.600;23.556;2023-04-03T01:50:26;1.03;;;0.90;;
10465;SDS011;5280;42.600;23.556;2023-04-03T01:52:53;1.43;;;0.90;;
10465;SDS011;5280;42.600;23.556;2023-04-03T01:55:20;1.20;;;0.93;;
10465;SDS011;5280;42.600;23.556;2023-04-03T01:57:46;0.90;;;0.90;;
10465;SDS011;5280;42.600;23.556;2023-04-03T02:00:14;1.90;;;1.00;;
10465;SDS011;5280;42.600;23.556;2023-04-03T02:02:41;2.30;;;1.10;;
10465;SDS011;5280;42.600;23.556;2023-04-03T02:05:08;0.90;;;0.90;;
10465;SDS011;5280;42.600;23.556;2023-04-03T02:07:36;1.10;;;1.00;;
10465;SDS011;5280;42.600;23.556;2023-04-03T02:10:03;1.17;;;1.07;;
10465;SDS011;5280;42.600;23.556;2023-04-03T02:12:31;2.30;;;1.10;;
10465;SDS011;5280;42.600;23.556;2023-04-03T02:14:58;1.93;;;1.03;;
10465;SDS011;5280;42.600;23.556;2023-04-03T02:17:25;1.60;;;1.03;;
10465;SDS011;5280;42.600;23.556;2023-04-03T02:19:55;0.80;;;0.80;;
10465;SDS011;5280;42.600;23.556;2023-04-03T02:22:21;1.60;;;1.10;;
10465;SDS011;5280;42.600;23.556;2023-04-03T02:24:49;0.90;;;0.90;;
10465;SDS011;5280;42.600;23.556;2023-04-03T02:27:16;1.23;;;1.03;;
10465;SDS011;5280;42.600;23.556;2023-04-03T02:29:43;1.47;;;1.00;;
10465;SDS011;5280;42.600;23.556;2023-04-03T02:32:10;2.67;;;1.30;;
10465;SDS011;5280;42.600;23.556;2023-04-03T02:34:37;0.80;;;0.80;;
10465;SDS011;5280;42.600;23.556;2023-04-03T02:37:03;1.17;;;1.00;;
10465;SDS011;5280;42.600;23.556;2023-04-03T02:39:30;1.00;;;0.90;;
10465;SDS011;5280;42.600;23.556;2023-04-03T02:41:58;1.40;;;1.07;;
10465;SDS011;5280;42.600;23.556;2023-04-03T02:44:25;1.53;;;0.97;;
10465;SDS011;5280;42.600;23.556;2023-04-03T02:46:52;1.20;;;1.20;;
10465;SDS011;5280;42.600;23.556;2023-04-03T02:49:19;1.00;;;1.00;;
10465;SDS011;5280;42.600;23.556;2023-04-03T02:51:45;0.87;;;0.80;;
10465;SDS011;5280;42.600;23.556;2023-04-03T02:54:12;1.00;;;1.00;;
10465;SDS011;5280;42.600;23.556;2023-04-03T02:56:39;1.80;;;0.90;;
10465;SDS011;5280;42.600;23.556;2023-04-03T02:59:08;1.13;;;0.93;;
10465;SDS011;5280;42.600;23.556;2023-04-03T03:01:34;1.73;;;0.93;;
10465;SDS011;5280;42.600;23.556;2023-04-03T03:04:01;2.17;;;0.90;;
10465;SDS011;5280;42.600;23.556;2023-04-03T03:06:28;0.70;;;0.70;;
10465;SDS011;5280;42.600;23.556;2023-04-03T03:08:55;1.20;;;0.80;;
10465;SDS011;5280;42.600;23.556;2023-04-03T03:11:22;1.90;;;0.87;;
10465;SDS011;5280;42.600;23.556;2023-04-03T03:13:49;0.83;;;0.80;;
10465;SDS011;5280;42.600;23.556;2023-04-03T03:16:17;1.27;;;0.90;;
10465;SDS011;5280;42.600;23.556;2023-04-03T03:18:44;1.33;;;1.07;;
10465;SDS011;5280;42.600;23.556;2023-04-03T03:21:10;1.43;;;1.17;;
10465;SDS011;5280;42.600;23.556;2023-04-03T03:23:40;0.93;;;0.90;;
10465;SDS011;5280;42.600;23.556;2023-04-03T03:26:08;2.47;;;1.23;;
10465;SDS011;5280;42.600;23.556;2023-04-03T03:28:36;0.90;;;0.90;;
10465;SDS011;5280;42.600;23.556;2023-04-03T03:31:13;1.10;;;1.00;;
10465;SDS011;5280;42.600;23.556;2023-04-03T03:33:41;0.70;;;0.70;;
10465;SDS011;5280;42.600;23.556;2023-04-03T03:36:08;0.83;;;0.83;;
10465;SDS011;5280;42.600;23.556;2023-04-03T03:38:35;1.37;;;1.10;;
10465;SDS011;5280;42.600;23.556;2023-04-03T03:41:02;1.17;;;0.80;;
10465;SDS011;5280;42.600;23.556;2023-04-03T03:43:29;2.20;;;1.10;;
10465;SDS011;5280;42.600;23.556;2023-04-03T03:45:55;1.30;;;1.20;;
10465;SDS011;5280;42.600;23.556;2023-04-03T03:48:22;2.00;;;1.37;;
10465;SDS011;5280;42.600;23.556;2023-04-03T03:50:51;1.10;;;1.10;;
10465;SDS011;5280;42.600;23.556;2023-04-03T03:53:17;1.27;;;1.10;;
10465;SDS011;5280;42.600;23.556;2023-04-03T03:55:44;1.83;;;1.50;;
10465;SDS011;5280;42.600;23.556;2023-04-03T03:58:11;1.40;;;1.20;;
10465;SDS011;5280;42.600;23.556;2023-04-03T04:00:38;1.20;;;1.10;;
10465;SDS011;5280;42.600;23.556;2023-04-03T04:03:05;2.43;;;1.20;;
10465;SDS011;5280;42.600;23.556;2023-04-03T04:05:32;1.90;;;1.20;;
10465;SDS011;5280;42.600;23.556;2023-04-03T04:08:00;1.43;;;1.33;;
10465;SDS011;5280;42.600;23.556;2023-04-03T04:10:27;1.70;;;1.30;;
10465;SDS011;5280;42.600;23.556;2023-04-03T04:12:54;2.77;;;1.50;;
10465;SDS011;5280;42.600;23.556;2023-04-03T04:15:21;1.53;;;1.43;;
10465;SDS011;5280;42.600;23.556;2023-04-03T04:17:48;2.23;;;1.60;;
10465;SDS011;5280;42.600;23.556;2023-04-03T04:20:17;1.57;;;1.47;;
10465;SDS011;5280;42.600;23.556;2023-04-03T04:22:44;1.67;;;1.57;;
10465;SDS011;5280;42.600;23.556;2023-04-03T04:25:13;1.80;;;1.50;;
10465;SDS011;5280;42.600;23.556;2023-04-03T04:27:40;1.50;;;1.40;;
10465;SDS011;5280;42.600;23.556;2023-04-03T04:30:07;1.30;;;1.20;;
10465;SDS011;5280;42.600;23.556;2023-04-03T04:32:35;1.73;;;1.10;;
10465;SDS011;5280;42.600;23.556;2023-04-03T04:35:02;1.33;;;1.30;;
10465;SDS011;5280;42.600;23.556;2023-04-03T04:37:30;0.90;;;0.90;;
10465;SDS011;5280;42.600;23.556;2023-04-03T04:39:57;1.57;;;1.10;;
10465;SDS011;5280;42.600;23.556;2023-04-03T04:42:26;0.90;;;0.90;;
10465;SDS011;5280;42.600;23.556;2023-04-03T04:44:53;1.13;;;0.90;;
10465;SDS011;5280;42.600;23.556;2023-04-03T04:47:20;2.40;;;1.10;;
10465;SDS011;5280;42.600;23.556;2023-04-03T04:49:46;5.30;;;1.30;;
10465;SDS011;5280;42.600;23.556;2023-04-03T04:52:13;2.23;;;1.30;;
10465;SDS011;5280;42.600;23.556;2023-04-03T04:54:40;2.83;;;1.53;;
10465;SDS011;5280;42.600;23.556;2023-04-03T04:57:07;1.40;;;1.10;;
10465;SDS011;5280;42.600;23.556;2023-04-03T04:59:35;1.47;;;1.20;;
10465;SDS011;5280;42.600;23.556;2023-04-03T05:02:02;2.20;;;0.90;;
10465;SDS011;5280;42.600;23.556;2023-04-03T05:04:30;0.80;;;0.80;;
10465;SDS011;5280;42.600;23.556;2023-04-03T05:06:58;1.30;;;1.20;;
10465;SDS011;5280;42.600;23.556;2023-04-03T05:09:25;1.57;;;0.90;;
10465;SDS011;5280;42.600;23.556;2023-04-03T05:11:53;1.00;;;1.00;;
10465;SDS011;5280;42.600;23.556;2023-04-03T05:14:21;1.57;;;1.10;;
10465;SDS011;5280;42.600;23.556;2023-04-03T05:16:49;2.83;;;1.03;;
10465;SDS011;5280;42.600;23.556;2023-04-03T05:19:18;1.43;;;1.00;;
10465;SDS011;5280;42.600;23.556;2023-04-03T05:21:45;1.10;;;1.10;;
10465;SDS011;5280;42.600;23.556;2023-04-03T05:24:11;1.13;;;1.00;;
10465;SDS011;5280;42.600;23.556;2023-04-03T05:26:38;2.60;;;2.27;;
10465;SDS011;5280;42.600;23.556;2023-04-03T05:29:08;2.37;;;1.93;;
10465;SDS011;5280;42.600;23.556;2023-04-03T05:31:35;3.83;;;2.73;;
10465;SDS011;5280;42.600;23.556;2023-04-03T05:34:03;2.57;;;2.13;;
10465;SDS011;5280;42.600;23.556;2023-04-03T05:36:30;3.37;;;2.00;;
10465;SDS011;5280;42.600;23.556;2023-04-03T05:38:57;2.23;;;2.03;;
10465;SDS011;5280;42.600;23.556;2023-04-03T05:41:24;2.60;;;2.20;;
10465;SDS011;5280;42.600;23.556;2023-04-03T05:43:51;1.90;;;1.80;;
10465;SDS011;5280;42.600;23.556;2023-04-03T05:46:18;2.43;;;2.23;;
10465;SDS011;5280;42.600;23.556;2023-04-03T05:48:48;2.27;;;2.13;;
10465;SDS011;5280;42.600;23.556;2023-04-03T05:51:18;2.73;;;2.07;;
10465;SDS011;5280;42.600;23.556;2023-04-03T05:53:47;3.07;;;2.53;;
10465;SDS011;5280;42.600;23.556;2023-04-03T05:56:17;2.67;;;2.47;;
10465;SDS011;5280;42.600;23.556;2023-04-03T05:58:43;3.03;;;2.60;;
10465;SDS011;5280;42.600;23.556;2023-04-03T06:01:10;3.20;;;2.90;;
10465;SDS011;5280;42.600;23.556;2023-04-03T06:03:37;3.60;;;2.70;;
10465;SDS011;5280;42.600;23.556;2023-04-03T06:06:05;3.17;;;2.87;;
10465;SDS011;5280;42.600;23.556;2023-04-03T06:08:39;3.20;;;2.90;;
10465;SDS011;5280;42.600;23.556;2023-04-03T06:11:06;2.90;;;2.70;;
10465;SDS011;5280;42.600;23.556;2023-04-03T06:13:33;4.40;;;3.40;;
10465;SDS011;5280;42.600;23.556;2023-04-03T06:16:01;5.00;;;3.50;;
10465;SDS011;5280;42.600;23.556;2023-04-03T06:18:30;3.83;;;3.40;;
10465;SDS011;5280;42.600;23.556;2023-04-03T06:20:57;3.70;;;3.30;;
10465;SDS011;5280;42.600;23.556;2023-04-03T06:23:25;4.37;;;3.30;;
10465;SDS011;5280;42.600;23.556;2023-04-03T06:25:54;3.50;;;3.20;;
10465;SDS011;5280;42.600;23.556;2023-04-03T06:28:21;3.97;;;3.00;;
10465;SDS011;5280;42.600;23.556;2023-04-03T06:30:48;3.87;;;3.07;;
10465;SDS011;5280;42.600;23.556;2023-04-03T06:33:15;4.23;;;3.17;;
10465;SDS011;5280;42.600;23.556;2023-04-03T06:35:42;3.80;;;3.40;;
10465;SDS011;5280;42.600;23.556;2023-04-03T06:38:08;5.00;;;4.30;;
10465;SDS011;5280;42.600;23.556;2023-04-03T06:40:36;6.50;;;5.03;;
10465;SDS011;5280;42.600;23.556;2023-04-03T06:43:05;5.30;;;4.60;;
10465;SDS011;5280;42.600;23.556;2023-04-03T06:45:41;4.43;;;3.90;;
10465;SDS011;5280;42.600;23.556;2023-04-03T06:48:11;4.90;;;3.57;;
10465;SDS011;5280;42.600;23.556;2023-04-03T06:50:38;5.10;;;3.63;;
10465;SDS011;5280;42.600;23.556;2023-04-03T06:53:06;6.67;;;4.00;;
10465;SDS011;5280;42.600;23.556;2023-04-03T06:55:33;5.07;;;3.73;;
10465;SDS011;5280;42.600;23.556;2023-04-03T06:58:00;8.50;;;5.30;;
10465;SDS011;5280;42.600;23.556;2023-04-03T07:00:30;4.20;;;3.50;;
10465;SDS011;5280;42.600;23.556;2023-04-03T07:02:57;6.57;;;3.73;;
10465;SDS011;5280;42.600;23.556;2023-04-03T07:05:24;4.13;;;3.70;;
10465;SDS011;5280;42.600;23.556;2023-04-03T07:07:51;4.70;;;3.70;;
10465;SDS011;5280;42.600;23.556;2023-04-03T07:10:18;4.23;;;3.90;;
10465;SDS011;5280;42.600;23.556;2023-04-03T07:12:45;3.30;;;3.00;;
10465;SDS011;5280;42.600;23.556;2023-04-03T07:15:12;3.60;;;3.00;;
10465;SDS011;5280;42.600;23.556;2023-04-03T07:17:40;4.20;;;2.60;;
10465;SDS011;5280;42.600;23.556;2023-04-03T07:20:08;4.90;;;2.60;;
10465;SDS011;5280;42.600;23.556;2023-04-03T07:22:35;3.30;;;2.50;;
10465;SDS011;5280;42.600;23.556;2023-04-03T07:25:02;6.23;;;2.90;;
10465;SDS011;5280;42.600;23.556;2023-04-03T07:27:32;3.97;;;3.23;;
10465;SDS011;5280;42.600;23.556;2023-04-03T07:30:00;4.33;;;3.07;;
10465;SDS011;5280;42.600;23.556;2023-04-03T07:32:26;3.17;;;2.87;;
10465;SDS011;5280;42.600;23.556;2023-04-03T07:34:55;3.30;;;2.93;;
10465;SDS011;5280;42.600;23.556;2023-04-03T07:37:22;2.90;;;2.70;;
10465;SDS011;5280;42.600;23.556;2023-04-03T07:39:49;5.63;;;3.10;;
10465;SDS011;5280;42.600;23.556;2023-04-03T07:42:16;5.60;;;3.60;;
10465;SDS011;5280;42.600;23.556;2023-04-03T07:44:45;3.23;;;2.80;;
10465;SDS011;5280;42.600;23.556;2023-04-03T07:47:12;4.60;;;3.70;;
10465;SDS011;5280;42.600;23.556;2023-04-03T07:49:41;3.57;;;3.27;;
10465;SDS011;5280;42.600;23.556;2023-04-03T07:52:10;4.23;;;3.20;;
10465;SDS011;5280;42.600;23.556;2023-04-03T07:54:37;4.10;;;3.53;;
10465;SDS011;5280;42.600;23.556;2023-04-03T07:57:04;4.13;;;3.40;;
10465;SDS011;5280;42.600;23.556;2023-04-03T07:59:31;3.57;;;3.00;;
10465;SDS011;5280;42.600;23.556;2023-04-03T08:01:57;2.90;;;2.70;;
10465;SDS011;5280;42.600;23.556;2023-04-03T08:04:24;3.10;;;2.80;;
10465;SDS011;5280;42.600;23.556;2023-04-03T08:06:52;3.73;;;3.17;;
10465;SDS011;5280;42.600;23.556;2023-04-03T08:09:20;2.73;;;2.53;;
10465;SDS011;5280;42.600;23.556;2023-04-03T08:11:47;3.07;;;2.03;;
10465;SDS011;5280;42.600;23.556;2023-04-03T08:14:14;2.50;;;2.30;;
10465;SDS011;5280;42.600;23.556;2023-04-03T08:16:43;2.70;;;2.50;;
10465;SDS011;5280;42.600;23.556;2023-04-03T08:19:11;2.50;;;2.30;;
10465;SDS011;5280;42.600;23.556;2023-04-03T08:21:40;2.70;;;2.50;;
10465;SDS011;5280;42.600;23.556;2023-04-03T08:24:08;2.43;;;2.23;;
10465;SDS011;5280;42.600;23.556;2023-04-03T08:26:36;3.33;;;2.23;;
10465;SDS011;5280;42.600;23.556;2023-04-03T08:29:04;2.40;;;2.20;;
10465;SDS011;5280;42.600;23.556;2023-04-03T08:31:30;2.40;;;2.03;;
10465;SDS011;5280;42.600;23.556;2023-04-03T08:33:57;2.30;;;2.10;;
10465;SDS011;5280;42.600;23.556;2023-04-03T08:36:25;2.00;;;1.90;;
10465;SDS011;5280;42.600;23.556;2023-04-03T08:38:56;2.30;;;2.20;;
10465;SDS011;5280;42.600;23.556;2023-04-03T08:41:26;2.33;;;2.13;;
10465;SDS011;5280;42.600;23.556;2023-04-03T08:44:00;1.90;;;1.80;;
10465;SDS011;5280;42.600;23.556;2023-04-03T08:46:37;2.10;;;1.87;;
10465;SDS011;5280;42.600;23.556;2023-04-03T08:49:18;2.30;;;2.10;;
10465;SDS011;5280;42.600;23.556;2023-04-03T08:51:51;4.47;;;2.40;;
10465;SDS011;5280;42.600;23.556;2023-04-03T08:54:30;2.10;;;1.90;;
10465;SDS011;5280;42.600;23.556;2023-04-03T08:57:01;2.33;;;2.13;;
10465;SDS011;5280;42.600;23.556;2023-04-03T08:59:32;2.73;;;2.47;;
10465;SDS011;5280;42.600;23.556;2023-04-03T09:02:04;2.90;;;1.63;;
10465;SDS011;5280;42.600;23.556;2023-04-03T09:04:47;2.57;;;1.70;;
10465;SDS011;5280;42.600;23.556;2023-04-03T09:07:16;1.60;;;1.40;;
10465;SDS011;5280;42.600;23.556;2023-04-03T09:09:52;2.10;;;2.00;;
10465;SDS011;5280;42.600;23.556;2023-04-03T09:12:21;2.00;;;1.90;;
10465;SDS011;5280;42.600;23.556;2023-04-03T09:14:56;2.70;;;1.80;;
10465;SDS011;5280;42.600;23.556;2023-04-03T09:17:33;4.10;;;1.40;;
10465;SDS011;5280;42.600;23.556;2023-04-03T09:20:11;1.60;;;1.50;;
10465;SDS011;5280;42.600;23.556;2023-04-03T09:22:49;1.90;;;1.80;;
10465;SDS011;5280;42.600;23.556;2023-04-03T09:25:18;1.77;;;1.67;;
10465;SDS011;5280;42.600;23.556;2023-04-03T09:27:48;2.43;;;1.90;;
10465;SDS011;5280;42.600;23.556;2023-04-03T09:30:17;2.30;;;2.10;;
10465;SDS011;5280;42.600;23.556;2023-04-03T09:32:45;2.77;;;2.40;;
10465;SDS011;5280;42.600;23.556;2023-04-03T09:35:16;2.43;;;2.10;;
10465;SDS011;5280;42.600;23.556;2023-04-03T09:37:47;2.03;;;1.83;;
10465;SDS011;5280;42.600;23.556;2023-04-03T09:40:28;2.93;;;1.80;;
10465;SDS011;5280;42.600;23.556;2023-04-03T09:43:00;3.60;;;2.00;;
10465;SDS011;5280;42.600;23.556;2023-04-03T09:45:30;2.60;;;2.40;;
10465;SDS011;5280;42.600;23.556;2023-04-03T09:48:05;3.03;;;2.27;;
10465;SDS011;5280;42.600;23.556;2023-04-03T09:50:34;2.17;;;1.97;;
10465;SDS011;5280;42.600;23.556;2023-04-03T09:53:05;3.47;;;2.30;;
10465;SDS011;5280;42.600;23.556;2023-04-03T09:55:33;2.73;;;2.47;;
10465;SDS011;5280;42.600;23.556;2023-04-03T09:58:22;3.27;;;2.30;;
10465;SDS011;5280;42.600;23.556;2023-04-03T10:00:55;3.57;;;2.20;;
10465;SDS011;5280;42.600;23.556;2023-04-03T10:03:24;2.10;;;2.00;;
10465;SDS011;5280;42.600;23.556;2023-04-03T10:05:55;3.60;;;2.50;;
10465;SDS011;5280;42.600;23.556;2023-04-03T10:08:24;2.40;;;2.20;;
10465;SDS011;5280;42.600;23.556;2023-04-03T10:13:55;2.33;;;2.17;;
10465;SDS011;5280;42.600;23.556;2023-04-03T10:16:28;2.97;;;2.30;;
10465;SDS011;5280;42.600;23.556;2023-04-03T10:19:09;4.00;;;2.30;;
10465;SDS011;5280;42.600;23.556;2023-04-03T10:21:52;2.30;;;2.10;;
10465;SDS011;5280;42.600;23.556;2023-04-03T10:24:25;3.33;;;2.60;;
10465;SDS011;5280;42.600;23.556;2023-04-03T10:27:01;4.17;;;2.60;;
10465;SDS011;5280;42.600;23.556;2023-04-03T10:29:36;3.27;;;2.53;;
10465;SDS011;5280;42.600;23.556;2023-04-03T10:32:26;3.20;;;2.40;;
10465;SDS011;5280;42.600;23.556;2023-04-03T10:35:15;2.77;;;2.33;;
10465;SDS011;5280;42.600;23.556;2023-04-03T10:37:50;5.17;;;2.20;;
10465;SDS011;5280;42.600;23.556;2023-04-03T10:40:29;2.63;;;2.13;;
10465;SDS011;5280;42.600;23.556;2023-04-03T10:43:02;3.20;;;2.23;;
10465;SDS011;5280;42.600;23.556;2023-04-03T10:45:44;3.30;;;2.40;;
10465;SDS011;5280;42.600;23.556;2023-04-03T10:48:22;2.63;;;2.10;;
10465;SDS011;5280;42.600;23.556;2023-04-03T10:51:04;2.73;;;2.40;;
10465;SDS011;5280;42.600;23.556;2023-04-03T10:53:43;3.90;;;2.10;;
10465;SDS011;5280;42.600;23.556;2023-04-03T10:56:18;2.47;;;2.13;;
10465;SDS011;5280;42.600;23.556;2023-04-03T10:58:53;2.40;;;2.20;;
10465;SDS011;5280;42.600;23.556;2023-04-03T11:01:26;2.67;;;2.10;;
10465;SDS011;5280;42.600;23.556;2023-04-03T11:04:02;2.77;;;2.00;;
10465;SDS011;5280;42.600;23.556;2023-04-03T11:06:35;2.00;;;1.80;;
10465;SDS011;5280;42.600;23.556;2023-04-03T11:09:07;2.70;;;2.00;;
10465;SDS011;5280;42.600;23.556;2023-04-03T11:11:44;1.90;;;1.80;;
10465;SDS011;5280;42.600;23.556;2023-04-03T11:14:15;4.40;;;2.10;;
10465;SDS011;5280;42.600;23.556;2023-04-03T11:19:47;2.00;;;1.80;;
10465;SDS011;5280;42.600;23.556;2023-04-03T11:22:22;2.23;;;1.80;;
10465;SDS011;5280;42.600;23.556;2023-04-03T11:24:55;2.77;;;1.90;;
10465;SDS011;5280;42.600;23.556;2023-04-03T11:27:37;2.27;;;2.17;;
10465;SDS011;5280;42.600;23.556;2023-04-03T11:30:09;2.20;;;2.00;;
10465;SDS011;5280;42.600;23.556;2023-04-03T11:36:07;1.70;;;1.60;;
10465;SDS011;5280;42.600;23.556;2023-04-03T11:38:37;2.80;;;2.50;;
10465;SDS011;5280;42.600;23.556;2023-04-03T11:41:09;5.63;;;2.73;;
10465;SDS011;5280;42.600;23.556;2023-04-03T11:43:39;3.17;;;2.63;;
10465;SDS011;5280;42.600;23.556;2023-04-03T11:46:08;3.10;;;2.80;;
10465;SDS011;5280;42.600;23.556;2023-04-03T11:48:44;4.90;;;3.13;;
10465;SDS011;5280;42.600;23.556;2023-04-03T11:51:40;4.07;;;3.47;;
10465;SDS011;5280;42.600;23.556;2023-04-03T12:12:41;2.03;;;1.60;;
10465;SDS011;5280;42.600;23.556;2023-04-03T12:15:16;2.50;;;2.00;;
10465;SDS011;5280;42.600;23.556;2023-04-03T12:17:47;2.03;;;1.90;;
10465;SDS011;5280;42.600;23.556;2023-04-03T12:23:26;1.60;;;1.50;;
10465;SDS011;5280;42.600;23.556;2023-04-03T12:26:01;1.30;;;1.30;;
10465;SDS011;5280;42.600;23.556;2023-04-03T12:28:40;1.50;;;1.40;;
10465;SDS011;5280;42.600;23.556;2023-04-03T12:31:09;1.43;;;1.33;;
10465;SDS011;5280;42.600;23.556;2023-04-03T12:36:28;1.80;;;1.70;;
10465;SDS011;5280;42.600;23.556;2023-04-03T12:39:06;1.43;;;1.33;;
10465;SDS011;5280;42.600;23.556;2023-04-03T12:41:44;1.30;;;1.30;;
10465;SDS011;5280;42.600;23.556;2023-04-03T12:44:22;1.60;;;1.50;;
10465;SDS011;5280;42.600;23.556;2023-04-03T12:47:02;1.70;;;1.40;;
10465;SDS011;5280;42.600;23.556;2023-04-03T12:49:44;1.77;;;1.47;;
10465;SDS011;5280;42.600;23.556;2023-04-03T12:52:16;1.70;;;1.60;;
10465;SDS011;5280;42.600;23.556;2023-04-03T12:54:49;1.60;;;1.50;;
10465;SDS011;5280;42.600;23.556;2023-04-03T12:57:19;1.27;;;1.27;;
10465;SDS011;5280;42.600;23.556;2023-04-03T12:59:50;3.70;;;1.60;;
10465;SDS011;5280;42.600;23.556;2023-04-03T13:02:20;1.70;;;1.60;;
10465;SDS011;5280;42.600;23.556;2023-04-03T13:04:50;1.57;;;1.40;;
10465;SDS011;5280;42.600;23.556;2023-04-03T13:07:21;2.27;;;1.70;;
10465;SDS011;5280;42.600;23.556;2023-04-03T13:09:55;1.67;;;1.57;;
10465;SDS011;5280;42.600;23.556;2023-04-03T13:12:25;1.53;;;1.43;;
10465;SDS011;5280;42.600;23.556;2023-04-03T13:14:54;1.80;;;1.40;;
10465;SDS011;5280;42.600;23.556;2023-04-03T13:17:21;1.63;;;1.53;;
10465;SDS011;5280;42.600;23.556;2023-04-03T13:19:49;1.40;;;1.40;;
10465;SDS011;5280;42.600;23.556;2023-04-03T13:22:24;1.70;;;1.60;;
10465;SDS011;5280;42.600;23.556;2023-04-03T13:24:56;1.77;;;1.67;;
10465;SDS011;5280;42.600;23.556;2023-04-03T13:27:27;2.63;;;1.57;;
10465;SDS011;5280;42.600;23.556;2023-04-03T13:29:58;1.70;;;1.60;;
10465;SDS011;5280;42.600;23.556;2023-04-03T13:32:28;1.90;;;1.70;;
10465;SDS011;5280;42.600;23.556;2023-04-03T13:34:57;2.03;;;1.53;;
10465;SDS011;5280;42.600;23.556;2023-04-03T13:37:26;3.17;;;1.87;;
10465;SDS011;5280;42.600;23.556;2023-04-03T13:39:58;3.30;;;1.70;;
10465;SDS011;5280;42.600;23.556;2023-04-03T13:42:30;2.30;;;2.00;;
10465;SDS011;5280;42.600;23.556;2023-04-03T13:45:18;1.90;;;1.80;;
10465;SDS011;5280;42.600;23.556;2023-04-03T13:47:48;3.17;;;2.67;;
10465;SDS011;5280;42.600;23.556;2023-04-03T13:50:18;2.40;;;2.30;;
10465;SDS011;5280;42.600;23.556;2023-04-03T13:52:48;3.57;;;2.60;;
10465;SDS011;5280;42.600;23.556;2023-04-03T13:55:21;4.80;;;2.50;;
10465;SDS011;5280;42.600;23.556;2023-04-03T13:57:55;2.10;;;2.00;;
10465;SDS011;5280;42.600;23.556;2023-04-03T14:00:28;3.37;;;2.67;;
10465;SDS011;5280;42.600;23.556;2023-04-03T14:02:57;2.80;;;2.40;;
10465;SDS011;5280;42.600;23.556;2023-04-03T14:05:25;2.53;;;2.13;;
10465;SDS011;5280;42.600;23.556;2023-04-03T14:07:54;3.83;;;2.40;;
10465;SDS011;5280;42.600;23.556;2023-04-03T14:10:22;2.87;;;2.30;;
10465;SDS011;5280;42.600;23.556;2023-04-03T14:12:48;2.40;;;2.20;;
10465;SDS011;5280;42.600;23.556;2023-04-03T14:15:18;2.93;;;2.53;;
10465;SDS011;5280;42.600;23.556;2023-04-03T14:17:48;3.13;;;2.17;;
10465;SDS011;5280;42.600;23.556;2023-04-03T14:20:17;2.23;;;2.00;;
10465;SDS011;5280;42.600;23.556;2023-04-03T14:22:46;2.93;;;2.27;;
10465;SDS011;5280;42.600;23.556;2023-04-03T14:25:16;2.03;;;1.90;;
10465;SDS011;5280;42.600;23.556;2023-04-03T14:27:44;1.90;;;1.67;;
10465;SDS011;5280;42.600;23.556;2023-04-03T14:30:14;1.93;;;1.70;;
10465;SDS011;5280;42.600;23.556;2023-04-03T14:32:43;2.77;;;1.40;;
10465;SDS011;5280;42.600;23.556;2023-04-03T14:35:11;1.90;;;1.50;;
10465;SDS011;5280;42.600;23.556;2023-04-03T14:37:40;1.50;;;1.30;;
10465;SDS011;5280;42.600;23.556;2023-04-03T14:40:08;2.73;;;1.33;;
10465;SDS011;5280;42.600;23.556;2023-04-03T14:42:38;1.00;;;1.00;;
10465;SDS011;5280;42.600;23.556;2023-04-03T14:45:06;1.00;;;1.00;;
10465;SDS011;5280;42.600;23.556;2023-04-03T14:47:36;1.30;;;1.20;;
10465;SDS011;5280;42.600;23.556;2023-04-03T14:50:11;1.67;;;1.00;;
10465;SDS011;5280;42.600;23.556;2023-04-03T14:52:40;1.17;;;1.07;;
10465;SDS011;5280;42.600;23.556;2023-04-03T14:55:07;1.20;;;1.20;;
10465;SDS011;5280;42.600;23.556;2023-04-03T14:57:34;1.37;;;1.30;;
10465;SDS011;5280;42.600;23.556;2023-04-03T15:00:02;1.10;;;1.10;;
10465;SDS011;5280;42.600;23.556;2023-04-03T15:02:31;1.90;;;1.10;;
10465;SDS011;5280;42.600;23.556;2023-04-03T15:05:00;1.20;;;1.20;;
10465;SDS011;5280;42.600;23.556;2023-04-03T15:07:31;1.07;;;1.03;;
10465;SDS011;5280;42.600;23.556;2023-04-03T15:10:02;1.20;;;1.20;;
10465;SDS011;5280;42.600;23.556;2023-04-03T15:12:39;1.43;;;1.33;;
10465;SDS011;5280;42.600;23.556;2023-04-03T15:15:07;1.33;;;1.23;;
10465;SDS011;5280;42.600;23.556;2023-04-03T15:17:35;2.73;;;1.13;;
10465;SDS011;5280;42.600;23.556;2023-04-03T15:20:03;1.43;;;1.33;;
10465;SDS011;5280;42.600;23.556;2023-04-03T15:22:39;1.30;;;1.20;;
10465;SDS011;5280;42.600;23.556;2023-04-03T15:25:06;1.33;;;1.23;;
10465;SDS011;5280;42.600;23.556;2023-04-03T15:27:34;1.40;;;1.30;;
10465;SDS011;5280;42.600;23.556;2023-04-03T15:30:01;1.60;;;1.50;;
10465;SDS011;5280;42.600;23.556;2023-04-03T15:32:28;1.50;;;1.40;;
10465;SDS011;5280;42.600;23.556;2023-04-03T15:34:56;1.53;;;1.30;;
10465;SDS011;5280;42.600;23.556;2023-04-03T15:37:23;1.57;;;1.47;;
10465;SDS011;5280;42.600;23.556;2023-04-03T15:39:51;1.50;;;1.40;;